Terminal Aerodrome Forecast
Issued by NWS Grand Junction, CO

Home | Current Version | Previous Version | Text Only | Print | Product List | Glossary On
Versions: 1 2 3 4 5 6 7 8 9 10 11 12 13 14 15 16
000
FTUS45 KGJT 301722
TAFGJT
TAF
KGJT 301722Z 3018/3118 27007KT P6SM FEW110 FEW250
     FM302000 30010KT P6SM SCT110 SCT250
     FM310200 06006KT P6SM SCT250
     FM311100 12005KT P6SM FEW250=

USA.gov is the U.S. government's official web portal to all federal, state and local government web resources and services.